Time;durP1;ratioP1;P1;durP2;ratioP2;P2;SDS_P1;SDS_P2;PMS_P1;PMS_P2;Temp;Humidity;BMP_temperature;BMP_pressure;BME280_temperature;BME280_humidity;BME280_pressure;Samples;Min_cycle;Max_cycle;Signal;HPM_P1;HPM_P2
2021/12/18 00:01:24;;;;;;;6.03;3.08;;;;;;;13.89;58.47;104219.38;4986288;28;20034;-65
2021/12/18 00:03:50;;;;;;;6.30;3.20;;;;;;;14.04;57.68;104207.81;4971913;28;20082;-63
2021/12/18 00:06:16;;;;;;;8.70;4.30;;;;;;;14.79;55.88;104208.69;5010884;28;20058;-64
2021/12/18 00:08:42;;;;;;;7.95;4.22;;;;;;;14.69;55.73;104210.19;4996832;28;20018;-64
2021/12/18 00:11:08;;;;;;;7.82;4.38;;;;;;;13.90;58.64;104210.88;5014270;28;20052;-63
2021/12/18 00:13:33;;;;;;;10.63;5.78;;;;;;;14.44;57.02;104213.28;4996489;28;20110;-65
2021/12/18 00:15:59;;;;;;;10.23;5.22;;;;;;;15.07;55.10;104209.72;4996837;28;20061;-63
2021/12/18 00:18:24;;;;;;;10.35;5.75;;;;;;;13.96;58.65;104206.28;5014054;28;20033;-66
2021/12/18 00:20:50;;;;;;;10.05;5.55;;;;;;;13.88;58.79;104210.25;4996539;28;20061;-62
2021/12/18 00:23:16;;;;;;;12.48;5.97;;;;;;;13.55;59.93;104208.16;4996439;28;20030;-62
2021/12/18 00:25:43;;;;;;;10.93;5.95;;;;;;;13.72;59.81;104206.34;4996421;28;20085;-62
2021/12/18 00:28:09;;;;;;;12.52;6.25;;;;;;;13.18;61.30;104205.63;4980814;28;20094;-64
2021/12/18 00:30:35;;;;;;;12.18;5.78;;;;;;;13.66;60.36;104206.47;5014154;28;20026;-65
2021/12/18 00:33:01;;;;;;;12.07;6.22;;;;;;;14.22;58.19;104202.13;5013430;28;20045;-63
2021/12/18 00:35:26;;;;;;;15.63;6.82;;;;;;;14.72;56.94;104197.81;5012969;28;20030;-65
2021/12/18 00:37:52;;;;;;;9.80;5.32;;;;;;;14.17;58.03;104196.47;4995496;28;20038;-64
2021/12/18 00:40:22;;;;;;;10.73;4.90;;;;;;;13.65;59.97;104196.50;5014126;28;20053;-62
2021/12/18 00:42:57;;;;;;;11.77;5.45;;;;;;;14.05;58.63;104191.03;5013848;28;20023;-67
2021/12/18 00:45:22;;;;;;;10.07;5.25;;;;;;;14.30;57.08;104184.31;5013250;28;20513;-65
2021/12/18 00:47:48;;;;;;;10.75;5.43;;;;;;;14.68;56.61;104186.44;5013477;28;20053;-65
2021/12/18 00:50:26;;;;;;;9.77;4.88;;;;;;;14.73;56.54;104184.84;5012949;28;20387;-63
2021/12/18 00:52:51;;;;;;;9.13;4.65;;;;;;;14.79;55.52;104183.84;5012746;28;20041;-64
2021/12/18 00:55:21;;;;;;;9.07;4.10;;;;;;;14.32;57.00;104177.47;5013137;28;20037;-66
2021/12/18 00:57:49;;;;;;;6.63;3.50;;;;;;;15.00;55.64;104179.47;5012306;28;20046;-62
2021/12/18 01:00:23;;;;;;;8.57;4.05;;;;;;;14.90;55.57;104182.91;4995683;28;20030;-64
2021/12/18 01:02:57;;;;;;;8.90;3.92;;;;;;;15.22;55.11;104176.75;5012136;28;20054;-66
2021/12/18 01:05:24;;;;;;;7.75;4.35;;;;;;;14.57;56.56;104179.03;5012322;28;20037;-62
2021/12/18 01:07:49;;;;;;;8.20;4.28;;;;;;;14.88;55.29;104183.16;4994640;28;20053;-63
2021/12/18 01:11:14;;;;;;;8.77;4.22;;;;;;;14.57;56.54;104178.19;4994925;28;20034;-64
2021/12/18 01:13:02;;;;;;;8.68;4.18;;;;;;;14.50;56.72;104176.41;4998370;28;20041;-63
2021/12/18 01:15:38;;;;;;;6.72;3.83;;;;;;;14.60;56.32;104177.72;5012945;28;20027;-64
2021/12/18 01:23:33;;;;;;;7.90;3.50;;;;;;;14.60;56.06;104178.56;5013300;28;20045;-64
2021/12/18 01:25:59;;;;;;;7.30;3.90;;;;;;;13.81;58.27;104192.16;5012396;28;20168;-66
2021/12/18 01:28:25;;;;;;;8.82;4.13;;;;;;;13.69;58.86;104193.03;4995320;28;20278;-64
2021/12/18 01:30:51;;;;;;;8.73;3.95;;;;;;;13.66;59.42;104193.50;5012137;28;20050;-63
2021/12/18 01:33:16;;;;;;;10.82;4.30;;;;;;;14.19;57.78;104183.31;5012219;28;20101;-64
2021/12/18 01:35:45;;;;;;;9.18;3.92;;;;;;;15.35;54.71;104183.84;4995377;28;20022;-64
2021/12/18 01:38:12;;;;;;;7.72;4.05;;;;;;;15.54;53.61;104187.16;5012144;28;20038;-63
2021/12/18 01:40:48;;;;;;;9.85;4.03;;;;;;;15.60;53.25;104186.16;4963013;28;20026;-62
2021/12/18 01:51:32;;;;;;;7.10;3.90;;;;;;;15.15;54.64;104195.47;5012529;28;20052;-64
2021/12/18 01:53:59;;;;;;;7.32;3.75;;;;;;;15.26;53.78;104197.28;5012275;28;20026;-63
2021/12/18 01:56:27;;;;;;;6.72;3.60;;;;;;;15.00;54.98;104199.66;4995493;28;20030;-63
2021/12/18 01:58:53;;;;;;;7.28;4.10;;;;;;;14.61;55.99;104191.25;5012228;28;20042;-65
2021/12/18 02:01:20;;;;;;;8.20;3.50;;;;;;;14.76;55.90;104189.84;4994548;28;20022;-62
2021/12/18 02:03:46;;;;;;;7.57;3.95;;;;;;;15.29;54.72;104191.25;4994243;28;20038;-64
2021/12/18 02:06:12;;;;;;;7.55;3.95;;;;;;;15.18;54.79;104192.19;5010732;28;20030;-63
2021/12/18 02:08:39;;;;;;;7.60;4.15;;;;;;;14.11;56.97;104191.94;5011872;28;20026;-64
2021/12/18 02:11:24;;;;;;;6.32;3.70;;;;;;;13.85;58.37;104183.16;4994454;28;20085;-64
2021/12/18 02:22:09;;;;;;;9.55;3.70;;;;;;;14.82;55.40;104170.34;5011244;28;20045;-63
2021/12/18 02:24:34;;;;;;;8.20;4.20;;;;;;;14.45;56.43;104169.97;4994144;28;20065;-64
2021/12/18 02:26:59;;;;;;;9.10;3.95;;;;;;;14.46;56.26;104166.09;5010809;28;20038;-66
2021/12/18 02:29:29;;;;;;;9.50;3.65;;;;;;;13.96;58.13;104165.72;4993962;28;20045;-65
2021/12/18 02:31:54;;;;;;;6.20;3.30;;;;;;;14.54;55.93;104157.44;5010575;28;20031;-65
2021/12/18 02:34:26;;;;;;;6.40;3.22;;;;;;;13.77;57.81;104169.75;4994218;28;20037;-64
2021/12/18 02:36:52;;;;;;;7.55;3.53;;;;;;;13.77;58.20;104170.59;4994228;28;20036;-61
2021/12/18 02:41:56;;;;;;;6.45;3.15;;;;;;;14.01;57.54;104164.19;5010717;28;20042;-63
2021/12/18 02:44:21;;;;;;;7.70;3.80;;;;;;;14.76;55.36;104162.22;4995319;28;20032;-64
2021/12/18 02:46:47;;;;;;;7.07;3.63;;;;;;;15.41;53.07;104156.06;4993877;28;20034;-64
2021/12/18 02:49:15;;;;;;;7.78;3.70;;;;;;;14.46;55.75;104155.06;5010982;28;20517;-63
2021/12/18 02:51:42;;;;;;;8.15;3.88;;;;;;;14.26;56.47;104155.56;5010849;28;20023;-65
2021/12/18 02:54:08;;;;;;;8.65;3.88;;;;;;;14.57;55.58;104151.41;4993421;28;20034;-63
2021/12/18 02:56:33;;;;;;;7.18;3.90;;;;;;;14.14;56.23;104152.81;5010784;28;20078;-62
2021/12/18 02:59:06;;;;;;;7.53;3.75;;;;;;;14.24;56.08;104144.75;4993478;28;20041;-66
2021/12/18 03:01:33;;;;;;;9.52;3.70;;;;;;;14.76;55.04;104143.75;5010978;28;20018;-62
2021/12/18 03:04:01;;;;;;;6.63;3.83;;;;;;;14.49;55.38;104149.03;5010632;28;20098;-66
2021/12/18 03:09:25;;;;;;;8.48;3.95;;;;;;;13.94;56.93;104145.84;5011795;28;20042;-64
2021/12/18 03:27:48;;;;;;;9.60;4.68;;;;;;;13.53;58.99;104166.22;4998601;28;20061;-64
2021/12/18 03:30:14;;;;;;;9.55;4.57;;;;;;;14.42;56.47;104153.91;5014101;28;20049;-67
2021/12/18 03:32:40;;;;;;;10.82;4.72;;;;;;;13.85;57.56;104150.06;4997573;28;20030;-64
2021/12/18 03:35:06;;;;;;;10.43;5.13;;;;;;;14.21;56.83;104152.69;5014255;28;20114;-66
2021/12/18 03:37:34;;;;;;;12.15;5.40;;;;;;;14.32;56.99;104149.88;5015100;28;20089;-62
2021/12/18 03:39:59;;;;;;;13.55;5.85;;;;;;;13.94;58.51;104147.78;4997624;28;20030;-65
2021/12/18 03:42:25;;;;;;;13.27;5.85;;;;;;;13.75;58.73;104150.69;4997685;28;20031;-64
2021/12/18 03:44:51;;;;;;;10.18;4.50;;;;;;;12.88;60.97;104138.56;4981020;28;20038;-63
2021/12/18 03:47:16;;;;;;;10.68;4.82;;;;;;;12.75;61.68;104143.44;4996794;28;20098;-64
2021/12/18 03:49:41;;;;;;;9.85;5.10;;;;;;;13.40;60.20;104137.84;5014577;28;20031;-64
2021/12/18 03:52:07;;;;;;;11.48;5.28;;;;;;;14.06;57.94;104133.91;4997146;28;20037;-64
2021/12/18 03:54:33;;;;;;;10.95;5.05;;;;;;;14.83;55.61;104140.81;4997586;28;20030;-62
2021/12/18 03:56:59;;;;;;;11.63;5.25;;;;;;;14.43;55.67;104139.84;5014730;28;20041;-64
2021/12/18 03:59:24;;;;;;;10.85;5.55;;;;;;;15.34;53.55;104143.50;4995936;28;20045;-63
2021/12/18 04:01:49;;;;;;;11.48;5.35;;;;;;;15.61;52.93;104138.06;4996768;28;20023;-68
2021/12/18 04:04:15;;;;;;;12.65;5.45;;;;;;;15.17;53.94;104143.53;5013469;28;20041;-62
2021/12/18 04:06:42;;;;;;;14.98;5.95;;;;;;;14.16;56.72;104134.13;5013783;28;20030;-65
2021/12/18 04:09:08;;;;;;;13.88;5.68;;;;;;;14.20;57.10;104139.97;4997187;28;20034;-63
2021/12/18 04:11:33;;;;;;;11.13;5.15;;;;;;;14.37;56.63;104135.31;4997238;28;20038;-62
2021/12/18 04:13:59;;;;;;;11.93;5.65;;;;;;;14.10;57.31;104135.13;4996910;28;20042;-63
2021/12/18 04:16:24;;;;;;;12.90;5.35;;;;;;;14.37;57.07;104140.03;5012763;28;20034;-62
2021/12/18 04:18:49;;;;;;;12.98;4.75;;;;;;;13.67;58.40;104131.78;4996184;28;20030;-65
2021/12/18 04:21:15;;;;;;;10.65;4.25;;;;;;;13.78;58.06;104133.66;4995579;28;20077;-63
2021/12/18 04:23:40;;;;;;;12.45;4.35;;;;;;;13.21;59.60;104150.06;5013508;28;20077;-63
2021/12/18 04:26:06;;;;;;;10.05;4.15;;;;;;;13.05;60.46;104144.19;4978906;28;20043;-61
2021/12/18 04:28:31;;;;;;;9.07;3.72;;;;;;;13.11;60.17;104155.31;4995884;28;20042;-65
2021/12/18 04:30:57;;;;;;;8.57;3.85;;;;;;;13.48;59.01;104155.91;5012975;28;20030;-64
2021/12/18 04:33:22;;;;;;;7.63;3.13;;;;;;;12.73;61.16;104154.69;5012630;28;20022;-63
2021/12/18 04:35:48;;;;;;;8.07;2.92;;;;;;;12.73;60.75;104146.44;5012638;28;20030;-63
2021/12/18 04:38:13;;;;;;;10.45;4.30;;;;;;;12.55;61.28;104152.03;4980228;28;20030;-64
2021/12/18 04:40:40;;;;;;;8.55;3.47;;;;;;;13.58;58.61;104158.91;5013900;28;20026;-64
2021/12/18 04:43:06;;;;;;;9.88;3.85;;;;;;;13.36;58.75;104152.34;4995877;28;20034;-62
2021/12/18 04:45:31;;;;;;;11.63;4.35;;;;;;;13.15;60.17;104146.31;4995193;28;20041;-63
2021/12/18 04:47:57;;;;;;;16.73;4.05;;;;;;;13.29;59.38;104146.94;4995575;28;20054;-63
2021/12/18 04:50:23;;;;;;;15.88;3.88;;;;;;;12.84;60.70;104153.88;5012201;28;20034;-62
2021/12/18 04:52:49;;;;;;;9.85;3.90;;;;;;;12.27;62.73;104159.00;5012567;28;20145;-63
2021/12/18 04:55:15;;;;;;;9.50;4.13;;;;;;;12.46;62.30;104155.13;4995204;28;20030;-63
2021/12/18 04:57:40;;;;;;;9.25;3.95;;;;;;;11.97;63.28;104159.84;4979170;28;20053;-63
2021/12/18 05:00:08;;;;;;;8.30;3.38;;;;;;;12.55;61.77;104165.78;5012689;28;20018;-64
2021/12/18 05:02:38;;;;;;;18.65;3.67;;;;;;;12.06;62.53;104161.19;4979226;28;20077;-66
2021/12/18 05:05:04;;;;;;;17.40;4.68;;;;;;;12.68;61.38;104168.34;4995554;28;20045;-66
2021/12/18 05:07:30;;;;;;;8.95;4.22;;;;;;;12.71;60.66;104159.63;4994163;28;20038;-64
2021/12/18 05:09:56;;;;;;;8.35;3.75;;;;;;;12.88;60.14;104179.88;5012680;28;20029;-64
2021/12/18 05:12:21;;;;;;;10.98;4.13;;;;;;;12.29;61.65;104170.63;4994245;28;20034;-62
2021/12/18 05:14:46;;;;;;;11.55;4.97;;;;;;;13.08;59.58;104167.66;4963336;28;20027;-64
2021/12/18 05:17:12;;;;;;;11.20;4.93;;;;;;;12.73;59.84;104179.47;4978835;28;20102;-64
2021/12/18 05:19:38;;;;;;;23.70;5.68;;;;;;;12.40;61.69;104168.97;5012082;28;20034;-64
2021/12/18 05:22:04;;;;;;;39.47;6.47;;;;;;;12.87;59.83;104180.94;5012009;28;20072;-61
2021/12/18 05:24:29;;;;;;;34.63;8.65;;;;;;;12.99;59.81;104180.09;5011773;28;20030;-63
2021/12/18 05:26:55;;;;;;;60.95;7.30;;;;;;;12.44;61.99;104182.03;4978434;28;20730;-66
2021/12/18 05:29:20;;;;;;;30.17;6.32;;;;;;;13.12;59.61;104184.53;5011476;28;20034;-63
2021/12/18 05:31:46;;;;;;;34.05;6.25;;;;;;;12.84;60.14;104177.81;4978408;28;20033;-64
2021/12/18 05:34:12;;;;;;;17.00;5.15;;;;;;;12.48;61.50;104177.72;4978600;28;20030;-62
2021/12/18 05:37:12;;;;;;;46.13;13.27;;;;;;;13.32;59.41;104176.75;5011677;28;20061;-64
2021/12/18 05:39:29;;;;;;;46.28;18.92;;;;;;;13.40;58.67;104178.34;5010911;28;20038;-65
2021/12/18 05:41:55;;;;;;;21.98;8.65;;;;;;;12.31;61.08;104176.72;5012332;28;20022;-65
2021/12/18 05:44:22;;;;;;;13.48;6.28;;;;;;;12.34;61.07;104173.50;5011863;28;20062;-64
2021/12/18 05:46:48;;;;;;;20.38;8.80;;;;;;;13.02;59.63;104174.13;5011537;28;20030;-63
2021/12/18 05:49:14;;;;;;;21.38;12.80;;;;;;;13.13;59.12;104176.03;5012417;28;20075;-63
2021/12/18 05:51:40;;;;;;;15.27;8.85;;;;;;;13.29;58.25;104174.47;5011925;28;20022;-66
2021/12/18 05:54:06;;;;;;;17.23;6.97;;;;;;;12.74;60.17;104172.88;4994957;28;20038;-63
2021/12/18 05:56:33;;;;;;;18.33;11.60;;;;;;;12.84;59.70;104173.16;5011314;28;20049;-63
2021/12/18 05:58:59;;;;;;;13.82;4.68;;;;;;;13.18;58.83;104170.66;4995078;28;20045;-64
2021/12/18 06:01:25;;;;;;;12.80;3.90;;;;;;;13.02;58.88;104163.09;4979175;28;20026;-64
2021/12/18 06:03:50;;;;;;;12.50;6.03;;;;;;;12.78;58.99;104159.50;5012685;28;20041;-63
2021/12/18 06:06:15;;;;;;;17.80;6.15;;;;;;;12.28;60.81;104164.28;4995376;28;20038;-66
2021/12/18 06:08:42;;;;;;;14.35;6.38;;;;;;;12.96;58.46;104169.56;4994734;28;20097;-67
2021/12/18 06:11:13;;;;;;;8.77;3.35;;;;;;;13.26;57.70;104172.19;4995034;28;20056;-64
2021/12/18 06:13:42;;;;;;;13.38;5.43;;;;;;;13.18;57.96;104165.13;4993858;28;20038;-64
2021/12/18 06:16:08;;;;;;;17.70;3.10;;;;;;;12.43;59.76;104158.34;4994242;28;20041;-63
2021/12/18 06:18:35;;;;;;;17.88;2.90;;;;;;;12.70;58.63;104164.25;5010694;28;20479;-67
2021/12/18 06:21:02;;;;;;;27.67;3.38;;;;;;;13.02;57.58;104157.59;5011172;28;20045;-65
2021/12/18 06:23:28;;;;;;;15.57;3.17;;;;;;;12.53;59.18;104166.00;4977927;28;20033;-63
2021/12/18 06:25:53;;;;;;;28.55;3.25;;;;;;;11.96;61.59;104160.91;5010769;28;20050;-65
2021/12/18 06:28:18;;;;;;;32.83;3.95;;;;;;;12.74;59.20;104166.53;4977469;28;20061;-64
2021/12/18 06:30:51;;;;;;;31.80;3.35;;;;;;;12.47;59.60;104165.06;4977960;28;20050;-65
2021/12/18 06:33:17;;;;;;;16.40;4.07;;;;;;;12.64;59.00;104164.38;4977669;28;20038;-64
2021/12/18 06:35:42;;;;;;;9.55;3.55;;;;;;;13.11;57.55;104167.19;4993231;28;20049;-66
2021/12/18 06:38:07;;;;;;;18.80;3.00;;;;;;;12.94;57.67;104157.97;5011521;28;20037;-65
2021/12/18 06:40:33;;;;;;;11.43;3.15;;;;;;;13.10;57.63;104160.00;4992935;28;20037;-66
2021/12/18 06:42:59;;;;;;;19.77;3.35;;;;;;;12.67;58.80;104161.97;4993708;28;20030;-67
2021/12/18 06:45:24;;;;;;;25.98;3.08;;;;;;;11.99;60.40;104157.69;4993321;28;20118;-63
2021/12/18 06:47:49;;;;;;;31.13;2.97;;;;;;;12.26;60.09;104163.66;4993893;28;20044;-64
2021/12/18 06:50:15;;;;;;;22.15;2.78;;;;;;;12.24;59.72;104167.72;4994104;28;20053;-64
2021/12/18 06:52:40;;;;;;;17.73;2.10;;;;;;;12.13;60.26;104164.69;5010407;28;20033;-63
2021/12/18 06:55:06;;;;;;;11.68;2.00;;;;;;;11.88;60.69;104170.28;5010781;28;20027;-63
2021/12/18 06:57:32;;;;;;;11.32;1.48;;;;;;;10.84;62.53;104176.41;5010642;28;20041;-63
2021/12/18 06:59:57;;;;;;;7.15;1.50;;;;;;;10.73;63.28;104179.06;4994389;28;20034;-63
2021/12/18 07:02:22;;;;;;;7.55;1.58;;;;;;;10.65;63.40;104167.28;5011393;28;20022;-64
2021/12/18 07:04:48;;;;;;;18.95;2.10;;;;;;;11.59;61.07;104171.91;4977703;28;20042;-66
2021/12/18 07:07:14;;;;;;;12.45;1.77;;;;;;;11.34;61.61;104178.31;5010929;28;20030;-64
2021/12/18 07:09:40;;;;;;;21.65;2.92;;;;;;;12.39;58.44;104165.41;4993148;28;20022;-66
2021/12/18 07:12:08;;;;;;;13.23;2.50;;;;;;;11.32;61.50;104172.19;4993773;28;20065;-66
2021/12/18 07:14:33;;;;;;;23.70;2.28;;;;;;;11.48;60.81;104176.25;5010941;28;20034;-64
2021/12/18 07:16:59;;;;;;;13.13;2.17;;;;;;;10.76;63.22;104171.22;4994258;28;20056;-66
2021/12/18 07:19:26;;;;;;;10.32;1.83;;;;;;;11.01;63.23;104175.88;5011080;28;20058;-63
2021/12/18 07:21:51;;;;;;;5.07;1.85;;;;;;;10.75;63.11;104183.25;5011114;28;20706;-67
2021/12/18 07:24:16;;;;;;;4.72;1.67;;;;;;;10.67;62.99;104181.63;4993810;28;20038;-63
2021/12/18 07:26:42;;;;;;;4.93;1.88;;;;;;;10.26;64.05;104180.16;4993591;28;20050;-67
2021/12/18 07:29:07;;;;;;;9.45;2.10;;;;;;;10.81;62.09;104176.84;5011456;28;20041;-64
2021/12/18 07:31:32;;;;;;;5.60;1.77;;;;;;;10.54;63.13;104184.44;4994023;28;20086;-65
2021/12/18 07:33:58;;;;;;;5.88;1.98;;;;;;;10.96;61.76;104187.53;4962310;28;20053;-66
2021/12/18 07:36:23;;;;;;;4.82;1.52;;;;;;;11.13;61.58;104179.53;5011452;28;20034;-65
2021/12/18 07:38:49;;;;;;;7.38;1.83;;;;;;;11.57;60.28;104183.13;4993863;28;20031;-62
2021/12/18 07:41:14;;;;;;;6.90;1.77;;;;;;;11.76;59.43;104167.47;5011187;28;20089;-66
2021/12/18 07:43:40;;;;;;;6.53;1.95;;;;;;;12.00;58.34;104172.28;4994152;28;20026;-65
2021/12/18 07:46:05;;;;;;;7.68;1.80;;;;;;;10.44;62.57;104173.97;5011090;28;20030;-63
2021/12/18 07:48:30;;;;;;;5.25;1.60;;;;;;;11.04;61.10;104184.50;5010753;28;20049;-64
2021/12/18 07:50:56;;;;;;;6.45;1.83;;;;;;;11.28;60.44;104181.97;5010913;28;20038;-63
2021/12/18 07:53:23;;;;;;;6.50;1.98;;;;;;;11.76;58.47;104181.22;4977451;28;20041;-63
2021/12/18 07:55:49;;;;;;;4.75;1.55;;;;;;;10.97;61.44;104191.94;4995439;28;20041;-66
2021/12/18 07:58:14;;;;;;;5.72;2.00;;;;;;;11.10;61.06;104196.47;4981052;28;20031;-69
2021/12/18 08:00:40;;;;;;;6.82;2.20;;;;;;;11.62;59.55;104187.94;4996649;28;20030;-63
2021/12/18 08:03:05;;;;;;;8.95;2.00;;;;;;;10.95;61.07;104182.25;4996790;28;20023;-64
2021/12/18 08:05:30;;;;;;;10.25;1.90;;;;;;;10.18;64.11;104194.13;4995880;28;20034;-63
2021/12/18 08:07:56;;;;;;;7.28;1.98;;;;;;;10.39;62.86;104187.50;5013212;28;20034;-63
2021/12/18 08:10:21;;;;;;;8.00;2.10;;;;;;;11.18;60.98;104192.59;5013429;28;20031;-65
2021/12/18 08:12:47;;;;;;;9.27;2.42;;;;;;;12.08;58.77;104183.81;5013358;28;20114;-67
2021/12/18 08:15:12;;;;;;;10.18;2.78;;;;;;;11.67;59.24;104185.31;5013668;28;20026;-63
2021/12/18 08:17:38;;;;;;;9.18;2.55;;;;;;;10.89;61.66;104189.47;5013609;28;20033;-66
2021/12/18 08:20:04;;;;;;;10.50;3.25;;;;;;;11.81;59.60;104186.03;5013596;28;20026;-65
2021/12/18 08:22:30;;;;;;;10.32;2.63;;;;;;;11.85;59.91;104191.88;4995975;28;20098;-63
2021/12/18 08:24:55;;;;;;;9.23;3.13;;;;;;;11.80;58.77;104187.94;4963637;28;20631;-65
2021/12/18 08:27:20;;;;;;;9.75;2.80;;;;;;;12.12;58.60;104193.28;4996840;28;20035;-63
2021/12/18 08:29:46;;;;;;;7.95;2.58;;;;;;;12.86;56.29;104186.69;5012997;28;20057;-66
2021/12/18 08:32:11;;;;;;;4.68;1.55;;;;;;;11.64;58.42;104193.19;4995829;28;20053;-65
2021/12/18 08:34:37;;;;;;;6.35;2.38;;;;;;;11.69;58.83;104202.44;4995597;28;20034;-65
2021/12/18 08:37:02;;;;;;;7.93;1.77;;;;;;;10.76;61.01;104200.56;5013094;28;20032;-66
2021/12/18 08:39:28;;;;;;;5.28;1.67;;;;;;;11.36;59.33;104195.41;5012997;28;20042;-64
2021/12/18 08:41:54;;;;;;;5.47;1.80;;;;;;;11.54;58.71;104199.22;4979265;28;20091;-63
2021/12/18 08:44:19;;;;;;;5.93;1.63;;;;;;;11.17;59.28;104201.94;5013261;28;20022;-66
2021/12/18 08:46:45;;;;;;;5.22;1.65;;;;;;;10.45;62.26;104210.47;4995373;28;20108;-64
2021/12/18 08:49:10;;;;;;;4.85;1.85;;;;;;;11.48;59.57;104205.63;4979305;28;20030;-63
2021/12/18 08:51:37;;;;;;;6.18;1.98;;;;;;;11.92;58.29;104206.44;4979178;28;20030;-65
2021/12/18 08:54:04;;;;;;;5.75;2.00;;;;;;;11.30;58.99;104210.03;4995718;28;20079;-67
2021/12/18 08:56:29;;;;;;;6.20;2.03;;;;;;;11.89;58.14;104201.38;5012862;28;20026;-64
2021/12/18 08:58:55;;;;;;;6.55;2.05;;;;;;;12.19;56.70;104195.09;5009414;28;20026;-66
2021/12/18 09:01:26;;;;;;;7.05;2.03;;;;;;;11.91;57.88;104196.47;4978938;28;20030;-65
2021/12/18 09:03:52;;;;;;;6.40;2.28;;;;;;;12.10;57.43;104200.91;5011767;28;20034;-65
2021/12/18 09:06:18;;;;;;;6.43;2.40;;;;;;;12.59;56.68;104191.78;5011806;28;20483;-64
2021/12/18 09:08:43;;;;;;;8.45;2.97;;;;;;;11.17;60.37;104199.19;4994058;28;20058;-66
2021/12/18 09:11:08;;;;;;;5.25;2.60;;;;;;;12.35;57.17;104197.19;4994887;28;20750;-65
2021/12/18 09:13:34;;;;;;;6.03;2.83;;;;;;;12.41;56.61;104185.25;5012458;28;20042;-65
2021/12/18 09:15:59;;;;;;;9.80;7.15;;;;;;;11.61;58.25;104197.22;4994375;28;20036;-64
2021/12/18 09:18:25;;;;;;;5.20;2.28;;;;;;;11.20;60.00;104201.47;4994690;28;20093;-64
2021/12/18 09:20:50;;;;;;;4.40;2.50;;;;;;;11.55;59.06;104198.16;4979132;28;20034;-62
2021/12/18 09:23:17;;;;;;;10.02;6.72;;;;;;;11.90;58.15;104194.78;4995369;28;20034;-65
2021/12/18 09:25:43;;;;;;;;;;;;;;;11.79;58.08;104200.00;4994699;28;20061;-66
2021/12/18 09:28:09;;;;;;;6.20;3.33;;;;;;;12.19;56.92;104197.84;4995158;28;19921;-63
2021/12/18 09:30:35;;;;;;;6.07;2.63;;;;;;;12.03;57.64;104194.66;4979188;28;20106;-64
2021/12/18 09:33:00;;;;;;;4.78;2.63;;;;;;;12.57;55.97;104188.44;5012411;28;20022;-64
2021/12/18 09:35:26;;;;;;;5.78;3.38;;;;;;;12.13;57.64;104192.19;4995280;28;20034;-66
2021/12/18 09:37:52;;;;;;;5.72;3.15;;;;;;;12.05;57.92;104192.50;4994411;28;20030;-62
2021/12/18 09:40:19;;;;;;;9.07;2.08;;;;;;;11.37;59.71;104191.59;5012580;28;20129;-65
2021/12/18 09:42:46;;;;;;;9.48;3.17;;;;;;;11.18;59.49;104195.34;4978394;28;20033;-66
2021/12/18 09:45:13;;;;;;;7.22;1.90;;;;;;;12.16;57.05;104193.66;5011785;28;20037;-64
2021/12/18 09:47:39;;;;;;;4.75;1.70;;;;;;;11.61;58.18;104184.34;4994591;28;20041;-64
2021/12/18 09:50:05;;;;;;;12.43;2.42;;;;;;;11.68;58.69;104181.53;4994098;28;20094;-64
2021/12/18 09:52:31;;;;;;;10.25;2.58;;;;;;;11.63;59.03;104189.63;4993905;28;20038;-63
2021/12/18 09:54:58;;;;;;;10.90;2.75;;;;;;;12.18;57.20;104186.00;4993751;28;20045;-65
2021/12/18 09:57:24;;;;;;;12.70;2.85;;;;;;;12.04;57.49;104185.34;4994612;28;20034;-64
2021/12/18 09:59:50;;;;;;;9.77;2.83;;;;;;;11.82;58.45;104182.22;4994027;28;20036;-66
2021/12/18 10:02:15;;;;;;;11.52;3.33;;;;;;;12.34;57.27;104173.50;5011949;28;20030;-65
2021/12/18 10:04:41;;;;;;;8.23;2.88;;;;;;;12.19;57.91;104184.09;5011369;28;20027;-62
2021/12/18 10:07:22;;;;;;;8.18;2.28;;;;;;;12.77;56.04;104182.59;4993550;28;20120;-65
2021/12/18 10:09:53;;;;;;;6.25;2.40;;;;;;;12.26;57.15;104171.91;5014258;28;20033;-63
2021/12/18 10:12:21;;;;;;;15.10;2.30;;;;;;;11.54;59.14;104175.31;5013432;28;20057;-63
2021/12/18 10:14:52;;;;;;;9.85;2.58;;;;;;;12.89;55.91;104176.03;5007501;28;20029;-62
2021/12/18 10:17:39;;;;;;;7.13;2.17;;;;;;;13.50;54.45;104166.72;5023399;28;20033;-63
2021/12/18 10:20:10;;;;;;;9.07;2.20;;;;;;;13.40;54.31;104175.59;4997624;28;20032;-63
2021/12/18 10:22:43;;;;;;;5.20;2.20;;;;;;;13.33;54.49;104175.72;5000863;28;20030;-64
2021/12/18 10:25:09;;;;;;;10.60;2.40;;;;;;;12.90;55.77;104171.38;5022358;28;20090;-64
2021/12/18 10:27:41;;;;;;;5.95;2.33;;;;;;;13.29;54.71;104173.66;5004569;28;20037;-63
2021/12/18 10:30:17;;;;;;;13.40;2.38;;;;;;;12.90;55.16;104174.13;5006023;28;20038;-64
2021/12/18 10:33:15;;;;;;;22.67;2.90;;;;;;;12.81;56.54;104172.78;5017705;28;20023;-66
2021/12/18 10:35:44;;;;;;;25.48;2.78;;;;;;;12.56;56.29;104170.22;4984939;28;20034;-67
2021/12/18 10:38:37;;;;;;;20.15;2.35;;;;;;;12.56;57.00;104170.22;4998938;28;20505;-63
2021/12/18 10:41:29;;;;;;;12.27;2.53;;;;;;;12.65;56.63;104169.66;5012615;28;20044;-63
2021/12/18 10:44:07;;;;;;;6.30;2.63;;;;;;;11.73;59.25;104165.19;5012007;28;20030;-66
2021/12/18 10:46:33;;;;;;;;;;;;;;;11.49;59.79;104175.19;5023732;28;20041;-64
2021/12/18 10:49:09;;;;;;;6.10;2.10;;;;;;;11.38;60.50;104184.19;5009926;28;19944;-65
2021/12/18 10:51:35;;;;;;;5.57;2.33;;;;;;;11.27;60.65;104179.44;5030218;28;20046;-65
2021/12/18 10:54:08;;;;;;;5.45;2.13;;;;;;;12.05;58.79;104165.00;4996955;28;20090;-65
2021/12/18 10:56:37;;;;;;;4.82;2.08;;;;;;;11.92;58.50;104170.69;5031266;28;20034;-65
2021/12/18 10:59:06;;;;;;;4.47;1.92;;;;;;;11.75;58.70;104174.03;5030733;28;20025;-64
2021/12/18 11:01:34;;;;;;;4.90;2.40;;;;;;;12.05;58.39;104176.00;4984318;28;20053;-62
2021/12/18 11:04:00;;;;;;;4.93;2.17;;;;;;;12.48;57.28;104172.22;5012569;28;20033;-64
2021/12/18 11:06:27;;;;;;;5.43;2.35;;;;;;;11.93;58.45;104172.34;5004130;28;20093;-65
2021/12/18 11:08:57;;;;;;;6.88;2.08;;;;;;;11.02;60.68;104172.03;5011195;28;20034;-65
2021/12/18 11:14:07;;;;;;;4.35;2.10;;;;;;;12.71;57.18;104159.63;5030716;28;20029;-63
2021/12/18 11:16:36;;;;;;;5.25;2.58;;;;;;;12.26;57.29;104160.06;5024620;28;20026;-66
2021/12/18 11:19:04;;;;;;;4.13;2.20;;;;;;;12.12;57.86;104159.41;4990460;28;20030;-64
2021/12/18 11:21:30;;;;;;;7.68;2.50;;;;;;;11.43;60.07;104162.34;5016224;28;20061;-63
2021/12/18 11:24:04;;;;;;;11.43;2.78;;;;;;;11.62;59.81;104160.44;5007250;28;20093;-63
2021/12/18 11:26:41;;;;;;;8.65;2.90;;;;;;;11.15;61.05;104158.22;5018062;28;20050;-64
2021/12/18 11:29:19;;;;;;;8.18;2.80;;;;;;;12.08;58.68;104153.56;5020383;28;20032;-63
2021/12/18 11:31:45;;;;;;;13.57;3.78;;;;;;;11.32;60.57;104154.88;5017405;28;20048;-64
2021/12/18 11:34:11;;;;;;;14.27;3.40;;;;;;;11.08;61.58;104155.50;5025398;28;20072;-62
2021/12/18 11:36:41;;;;;;;20.98;3.78;;;;;;;12.27;58.37;104146.09;5002645;28;20026;-64
2021/12/18 11:39:12;;;;;;;11.35;2.97;;;;;;;11.76;59.34;104148.22;4988110;28;20089;-65
2021/12/18 11:41:39;;;;;;;6.80;3.13;;;;;;;12.26;58.72;104138.91;5011357;28;20093;-63
2021/12/18 11:44:44;;;;;;;5.20;2.47;;;;;;;11.57;60.89;104141.91;5010730;28;20057;-65
2021/12/18 11:47:53;;;;;;;3.53;1.70;;;;;;;11.66;60.35;104136.94;4920305;29;20055;-63
2021/12/18 11:50:28;;;;;;;4.63;2.08;;;;;;;12.44;57.81;104140.75;4896966;29;20048;-63
2021/12/18 11:53:16;;;;;;;4.38;2.15;;;;;;;12.80;56.66;104133.38;4986924;28;20037;-63
2021/12/18 11:55:50;;;;;;;5.63;2.42;;;;;;;13.33;55.56;104126.13;5002898;28;20073;-63
2021/12/18 11:58:22;;;;;;;5.15;2.25;;;;;;;12.85;56.17;104129.91;5022721;28;20034;-62
2021/12/18 12:01:03;;;;;;;9.18;2.90;;;;;;;12.85;56.68;104119.78;5000321;28;20065;-63
2021/12/18 12:03:39;;;;;;;5.22;2.50;;;;;;;13.54;54.76;104119.13;5007945;28;20044;-62
2021/12/18 12:06:30;;;;;;;9.68;5.20;;;;;;;12.59;57.12;104111.97;4998289;28;20037;-62
2021/12/18 12:09:14;;;;;;;7.90;4.18;;;;;;;12.45;57.66;104114.91;5021689;28;20026;-64
2021/12/18 12:11:50;;;;;;;6.22;2.70;;;;;;;11.56;59.98;104117.41;5020582;28;20018;-65